»·PEaware :: N196EC KSMX-KTOA

N196EC :: KSMX-KTOA

FLIGHT INFORMATION

Flight Status: Arrived
Operator: Privately registered:
United States
More flights under this callsign
Pilot: Adrián R. (20842)
Aircraft: AERMACCHI WARRIOR
(F260)
More flights by this aircraft type
Origin: KSMX Santa Maria Pub/Capt Hancock
United States
Destination: KTOA Zamperini
United States
More flights between these airports :: More routes between these airports
Route: RZS V186 ADAMM V394 SLI
File this flight plan on PilotEdge
Remarks: TEC ROUTE SBAP40
Altitude:
(Current/Filed)
7,000ft
Speed:
(Current/Filed)
150kts
Departed: 29-Jan-19 08:23 AM
Arrived: 29-Jan-19 09:39 AM
Distance/Time
Traveled:
124nm/1:16
Distance/Time
To Go:
Arrived

Flight Plot

Page will automatically refresh every two minutes.

Flight plan parsing failed; only flown route is shown


Map Options




Map Legend


Flown Route
Filed Route
Departure Airport
Arrival Airport
Navaid (VOR, NDB)
Fix

Horizontal Profiles

Position Reports

Time Latitude Longitude Heading Altitude Ground
Speed
29-Jan-19 08:00 34.901757 -120.452485 228 264ft 0kts
29-Jan-19 08:01 34.901757 -120.452485 228 264ft 0kts
29-Jan-19 08:02 34.901757 -120.452485 228 264ft 0kts
29-Jan-19 08:03 34.901757 -120.452485 228 264ft 0kts
29-Jan-19 08:04 34.901757 -120.452485 228 264ft 0kts
29-Jan-19 08:05 34.901757 -120.452485 228 264ft 0kts
29-Jan-19 08:06 34.901757 -120.452485 228 264ft 0kts
29-Jan-19 08:07 34.901757 -120.452485 228 264ft 0kts
29-Jan-19 08:08 34.901757 -120.452485 228 264ft 0kts
29-Jan-19 08:09 34.901757 -120.452485 228 264ft 0kts
29-Jan-19 08:10 34.901757 -120.452485 228 264ft 0kts
29-Jan-19 08:11 34.901757 -120.452485 228 264ft 0kts
29-Jan-19 08:12 34.901757 -120.452485 228 264ft 0kts
29-Jan-19 08:13 34.901757 -120.452485 228 264ft 0kts
29-Jan-19 08:14 34.901757 -120.452485 228 264ft 0kts
29-Jan-19 08:15 34.901727 -120.452523 226 264ft 1kts
29-Jan-19 08:16 34.900598 -120.452713 136 264ft 11kts
29-Jan-19 08:17 34.897441 -120.448921 135 264ft 18kts
29-Jan-19 08:18 34.894151 -120.445167 156 264ft 11kts
29-Jan-19 08:19 34.893583 -120.444945 197 264ft 0kts
29-Jan-19 08:20 34.893583 -120.444945 198 264ft 0kts
29-Jan-19 08:21 34.893378 -120.445044 205 264ft 0kts
29-Jan-19 08:22 34.896298 -120.450145 316 271ft 91kts
29-Jan-19 08:23 34.920853 -120.455047 67 1476ft 128kts
29-Jan-19 08:24 34.910600 -120.412192 111 2706ft 137kts
29-Jan-19 08:25 34.896794 -120.369948 111 3983ft 133kts
29-Jan-19 08:26 34.882912 -120.328525 125 5172ft 131kts
29-Jan-19 08:27 34.856089 -120.296707 133 6185ft 134kts
29-Jan-19 08:28 34.832445 -120.260450 128 6978ft 143kts
29-Jan-19 08:29 34.806823 -120.221651 128 6965ft 147kts
29-Jan-19 08:30 34.780837 -120.182086 128 6953ft 148kts
29-Jan-19 08:31 34.754892 -120.142579 128 6944ft 148kts
29-Jan-19 08:32 34.728799 -120.102880 128 6937ft 148kts
29-Jan-19 08:33 34.702876 -120.063483 128 6935ft 148kts
29-Jan-19 08:34 34.676905 -120.024062 128 6935ft 148kts
29-Jan-19 08:35 34.650899 -119.984631 128 6935ft 148kts
29-Jan-19 08:36 34.624911 -119.945268 128 6934ft 148kts
29-Jan-19 08:37 34.599198 -119.906358 128 6978ft 147kts
29-Jan-19 08:38 34.573348 -119.867302 128 6976ft 148kts
29-Jan-19 08:39 34.547403 -119.828145 128 6975ft 148kts
29-Jan-19 08:40 34.521792 -119.788831 127 6973ft 147kts
29-Jan-19 08:41 34.497662 -119.748365 123 6972ft 147kts
29-Jan-19 08:42 34.475315 -119.706755 122 6972ft 147kts
29-Jan-19 08:43 34.453059 -119.665104 122 6972ft 147kts
29-Jan-19 08:44 34.430717 -119.623291 122 6972ft 147kts
29-Jan-19 08:45 34.408451 -119.581656 122 6972ft 147kts
29-Jan-19 08:46 34.386073 -119.539908 122 6973ft 147kts
29-Jan-19 08:47 34.363700 -119.498186 122 6974ft 147kts
29-Jan-19 08:48 34.341306 -119.456478 122 6977ft 147kts
29-Jan-19 08:49 34.318932 -119.414585 122 6978ft 147kts
29-Jan-19 08:50 34.319340 -119.366499 81 6980ft 146kts
29-Jan-19 08:52 34.323591 -119.316858 84 6980ft 146kts
29-Jan-19 08:53 34.327478 -119.265949 84 6982ft 146kts
29-Jan-19 08:54 34.331290 -119.216540 84 6984ft 147kts
29-Jan-19 08:55 34.335153 -119.166358 84 6986ft 150kts
29-Jan-19 08:56 34.339063 -119.115199 84 6987ft 152kts
29-Jan-19 08:57 34.342967 -119.063868 84 6989ft 152kts
29-Jan-19 08:58 34.346855 -119.012443 84 6990ft 152kts
29-Jan-19 08:59 34.350725 -118.960973 84 6990ft 152kts
29-Jan-19 09:00 34.354739 -118.909533 84 6990ft 152kts
29-Jan-19 09:01 34.352781 -118.858742 112 6991ft 152kts
29-Jan-19 09:02 34.334563 -118.811352 117 6990ft 152kts
29-Jan-19 09:03 34.317759 -118.763307 112 6990ft 153kts
29-Jan-19 09:04 34.301240 -118.715404 112 6990ft 153kts
29-Jan-19 09:05 34.284592 -118.667362 112 6990ft 153kts
29-Jan-19 09:06 34.267960 -118.619441 112 6990ft 154kts
29-Jan-19 09:07 34.251301 -118.571521 112 7000ft 154kts
29-Jan-19 09:08 34.234599 -118.523538 112 7000ft 154kts
29-Jan-19 09:09 34.218225 -118.475370 112 6999ft 154kts
29-Jan-19 09:10 34.204273 -118.426279 110 7000ft 154kts
29-Jan-19 09:11 34.189365 -118.377257 109 6999ft 154kts
29-Jan-19 09:12 34.174627 -118.328566 110 6999ft 154kts
29-Jan-19 09:13 34.159725 -118.279351 109 7002ft 154kts
29-Jan-19 09:13 34.147434 -118.238549 109 7005ft 154kts
29-Jan-19 09:14 34.132614 -118.189366 108 7009ft 155kts
29-Jan-19 09:16 34.115136 -118.131470 108 7014ft 157kts
29-Jan-19 09:16 34.102113 -118.088410 108 7017ft 158kts
29-Jan-19 09:17 34.086535 -118.036969 108 7002ft 159kts
29-Jan-19 09:18 34.071161 -117.986310 108 6992ft 160kts
29-Jan-19 09:19 34.054470 -117.931609 108 6171ft 178kts
29-Jan-19 09:20 34.037243 -117.875268 109 5271ft 177kts
29-Jan-19 09:21 34.020012 -117.819339 109 4999ft 160kts
29-Jan-19 09:22 33.984922 -117.813839 210 5000ft 150kts
29-Jan-19 09:23 33.949946 -117.842080 217 4995ft 152kts
29-Jan-19 09:24 33.912590 -117.867016 205 4991ft 153kts
29-Jan-19 09:25 33.872724 -117.887691 203 4653ft 163kts
29-Jan-19 09:26 33.830005 -117.908941 202 3998ft 160kts
29-Jan-19 09:27 33.807435 -117.944911 288 4000ft 149kts
29-Jan-19 09:28 33.809338 -117.989114 238 3995ft 150kts
29-Jan-19 09:29 33.787676 -118.035728 241 3039ft 158kts
29-Jan-19 09:30 33.767485 -118.079702 241 3001ft 152kts
29-Jan-19 09:31 33.746409 -118.124990 231 2778ft 157kts
29-Jan-19 09:32 33.714448 -118.159951 228 2017ft 151kts
29-Jan-19 09:33 33.712490 -118.205203 289 1996ft 138kts
29-Jan-19 09:34 33.737879 -118.240015 308 1999ft 139kts
29-Jan-19 09:35 33.759917 -118.273157 308 1575ft 120kts
29-Jan-19 09:36 33.779596 -118.302782 309 867ft 96kts
29-Jan-19 09:37 33.795105 -118.326208 309 331ft 84kts
29-Jan-19 09:38 33.805627 -118.343030 290 106ft 26kts
29-Jan-19 09:39 33.804880 -118.344854 128 106ft 12kts
29-Jan-19 09:40 33.802312 -118.342189 142 106ft 9kts
29-Jan-19 09:41 33.801922 -118.341850 35 106ft 0kts
29-Jan-19 09:42 33.801922 -118.341850 35 106ft 0kts
29-Jan-19 09:43 33.801922 -118.341850 35 106ft 0kts

Navigation Log

Ident Type
Flight plan parsing failed, navigation log unavailable